Time;durP1;ratioP1;P1;durP2;ratioP2;P2;SDS_P1;SDS_P2;PMS_P1;PMS_P2;Temp;Humidity;BMP_temperature;BMP_pressure;BME280_temperature;BME280_humidity;BME280_pressure;Samples;Min_cycle;Max_cycle;Signal;HPM_P1;HPM_P2
2023/04/23 00:06:29;;;;;;;3.70;2.00;;;16.80;41.20;;;;;;20832264;28;20131;-55
2023/04/23 00:16:30;;;;;;;5.25;2.42;;;16.80;41.40;;;;;;20832271;28;20065;-53
2023/04/23 00:26:32;;;;;;;6.63;2.17;;;16.70;41.90;;;;;;20831987;28;20490;-57
2023/04/23 00:36:33;;;;;;;7.32;2.50;;;16.70;42.30;;;;;;20831258;28;20457;-56
2023/04/23 00:46:36;;;;;;;5.93;2.53;;;16.70;42.70;;;;;;20830776;28;20136;-54
2023/04/23 00:56:37;;;;;;;4.90;2.75;;;16.40;43.60;;;;;;20830641;28;20068;-55
2023/04/23 01:06:39;;;;;;;4.75;2.30;;;16.30;44.10;;;;;;20828737;28;20060;-55
2023/04/23 01:16:41;;;;;;;8.65;3.17;;;16.20;44.40;;;;;;20828743;28;20057;-55
2023/04/23 01:26:43;;;;;;;6.65;2.50;;;16.30;43.90;;;;;;20844598;28;20046;-55
2023/04/23 01:36:46;;;;;;;8.02;2.80;;;16.00;45.20;;;;;;20844160;28;20458;-55
2023/04/23 01:46:47;;;;;;;6.53;2.38;;;15.80;46.70;;;;;;20843639;28;20042;-55
2023/04/23 01:56:53;;;;;;;6.45;2.70;;;15.70;47.10;;;;;;20842942;28;20547;-55
2023/04/23 02:06:54;;;;;;;7.40;3.03;;;15.70;47.10;;;;;;20842357;28;20057;-53
2023/04/23 02:16:56;;;;;;;5.25;2.40;;;15.70;48.20;;;;;;20840725;28;20522;-55
2023/04/23 02:26:58;;;;;;;5.68;2.20;;;15.70;49.00;;;;;;20840701;28;20068;-55
2023/04/23 02:36:59;;;;;;;3.85;2.40;;;15.60;49.70;;;;;;20839207;28;20483;-55
2023/04/23 02:47:00;;;;;;;6.68;2.83;;;15.50;50.60;;;;;;20838028;28;20060;-55
2023/04/23 02:57:03;;;;;;;5.25;2.65;;;15.50;50.70;;;;;;20838362;28;20064;-55
2023/04/23 03:07:04;;;;;;;6.32;2.90;;;15.30;50.80;;;;;;20837226;28;20388;-55
2023/04/23 03:17:06;;;;;;;4.68;2.67;;;15.20;51.10;;;;;;20834824;28;20064;-54
2023/04/23 03:27:07;;;;;;;7.80;2.95;;;15.20;51.50;;;;;;20835774;28;20050;-54
2023/04/23 03:37:08;;;;;;;6.25;3.17;;;15.20;50.30;;;;;;20833699;28;20049;-54
2023/04/23 03:47:10;;;;;;;7.53;2.83;;;15.20;50.50;;;;;;20833994;28;20419;-55
2023/04/23 03:57:11;;;;;;;6.60;2.78;;;15.10;50.90;;;;;;20833462;28;20045;-55
2023/04/23 04:07:12;;;;;;;6.45;2.97;;;15.20;50.90;;;;;;20832753;28;20434;-55
2023/04/23 04:17:15;;;;;;;6.88;3.30;;;14.90;51.20;;;;;;20830597;28;20057;-55
2023/04/23 04:27:16;;;;;;;4.47;2.50;;;14.80;50.90;;;;;;20830612;28;20049;-54
2023/04/23 04:37:19;;;;;;;7.40;3.40;;;14.80;51.50;;;;;;20831498;28;20392;-55
2023/04/23 04:47:20;;;;;;;8.85;5.80;;;14.70;54.00;;;;;;20830961;28;20511;-56
2023/04/23 04:57:22;;;;;;;6.60;3.47;;;14.40;54.90;;;;;;20839283;28;20049;-55
2023/04/23 05:07:23;;;;;;;7.05;3.10;;;14.40;55.00;;;;;;20846561;28;20064;-55
2023/04/23 05:17:25;;;;;;;8.50;3.20;;;14.20;55.70;;;;;;20846324;28;20053;-55
2023/04/23 05:27:26;;;;;;;7.50;3.55;;;14.10;56.30;;;;;;20844297;28;20053;-55
2023/04/23 05:37:28;;;;;;;5.45;3.15;;;13.90;56.70;;;;;;20844778;28;20045;-54
2023/04/23 05:47:30;;;;;;;7.95;3.63;;;13.90;57.20;;;;;;20842087;28;20176;-56
2023/04/23 05:57:31;;;;;;;7.68;3.78;;;14.00;57.10;;;;;;20841098;28;20107;-55
2023/04/23 06:07:33;;;;;;;9.27;4.05;;;13.90;56.70;;;;;;20840384;28;20049;-55
2023/04/23 06:17:37;;;;;;;9.98;3.95;;;14.10;56.70;;;;;;20839351;28;20049;-55
2023/04/23 06:27:39;;;;;;;20.55;12.07;;;14.30;55.20;;;;;;20839333;28;20384;-55
2023/04/23 06:37:41;;;;;;;7.50;3.97;;;14.40;55.30;;;;;;20837952;28;20513;-54
2023/04/23 06:47:42;;;;;;;7.60;3.67;;;14.70;54.40;;;;;;20836305;28;20057;-55
2023/04/23 06:57:43;;;;;;;7.50;3.70;;;14.80;53.50;;;;;;20835275;28;20072;-55
2023/04/23 07:07:45;;;;;;;7.95;3.30;;;15.10;52.70;;;;;;20835195;28;20049;-56
2023/04/23 07:17:46;;;;;;;9.02;4.60;;;15.60;51.80;;;;;;20833150;28;20415;-56
2023/04/23 07:27:47;;;;;;;7.75;4.10;;;16.20;51.60;;;;;;20833822;28;20053;-56
2023/04/23 07:37:52;;;;;;;8.90;4.88;;;16.60;51.10;;;;;;20832710;28;20100;-54
2023/04/23 07:47:54;;;;;;;8.98;5.00;;;16.80;50.60;;;;;;20831713;28;20407;-55
2023/04/23 07:57:55;;;;;;;8.65;4.45;;;17.10;49.70;;;;;;20830153;28;20045;-55
2023/04/23 08:07:56;;;;;;;7.45;4.07;;;17.30;49.20;;;;;;20830967;28;20490;-55
2023/04/23 08:17:58;;;;;;;7.78;3.67;;;17.50;48.80;;;;;;20828150;28;20064;-54
2023/04/23 08:27:59;;;;;;;6.55;3.20;;;17.70;47.90;;;;;;20828385;28;20076;-55
2023/04/23 08:38:00;;;;;;;7.07;3.45;;;18.00;47.00;;;;;;20827038;28;20041;-55
2023/04/23 08:48:03;;;;;;;9.35;4.85;;;18.10;46.30;;;;;;20827145;28;20111;-55
2023/04/23 08:58:05;;;;;;;4.30;2.45;;;18.30;44.50;;;;;;20826365;28;20371;-57
2023/04/23 09:08:08;;;;;;;4.70;1.65;;;19.10;44.20;;;;;;20830975;28;20045;-55
2023/04/23 09:18:10;;;;;;;4.63;2.20;;;19.60;42.40;;;;;;20872268;28;20525;-56
2023/04/23 09:28:13;;;;;;;5.10;3.10;;;19.60;41.70;;;;;;20908821;28;20049;-57
2023/04/23 09:38:14;;;;;;;4.20;2.07;;;19.70;40.90;;;;;;20907096;28;20056;-58
2023/04/23 09:48:16;;;;;;;3.40;1.30;;;19.70;40.20;;;;;;20922986;28;20057;-59
2023/04/23 09:58:18;;;;;;;5.00;2.40;;;20.10;39.10;;;;;;20921648;28;20057;-58
2023/04/23 10:08:21;;;;;;;3.83;1.90;;;20.00;39.70;;;;;;20921875;28;20490;-58
2023/04/23 10:18:22;;;;;;;6.00;1.70;;;20.10;39.80;;;;;;20920378;28;20088;-58
2023/04/23 10:28:28;;;;;;;3.38;1.40;;;20.10;38.90;;;;;;20921723;28;20072;-58
2023/04/23 10:38:30;;;;;;;5.78;2.30;;;20.30;38.50;;;;;;20920470;28;20072;-58
2023/04/23 10:48:51;;;;;;;8.75;5.70;;;20.60;37.50;;;;;;20919271;28;20516;-58
2023/04/23 10:58:52;;;;;;;5.20;3.53;;;20.70;37.40;;;;;;20916569;28;20053;-58
2023/04/23 11:08:55;;;;;;;4.60;1.40;;;20.80;37.70;;;;;;20918382;28;20418;-59
2023/04/23 11:18:58;;;;;;;3.43;1.30;;;20.90;37.50;;;;;;20917996;28;20378;-58
2023/04/23 11:29:00;;;;;;;5.75;2.42;;;20.90;37.90;;;;;;20916659;28;20049;-58
2023/04/23 11:39:01;;;;;;;3.60;1.50;;;21.10;37.30;;;;;;20915331;28;20044;-60
2023/04/23 11:49:03;;;;;;;4.60;1.40;;;21.40;36.90;;;;;;20913509;28;20053;-58
2023/04/23 11:59:05;;;;;;;2.75;1.30;;;21.60;35.90;;;;;;20912446;28;20045;-58
2023/04/23 12:09:07;;;;;;;2.33;1.10;;;21.80;35.50;;;;;;20913265;28;20045;-59
2023/04/23 12:19:12;;;;;;;2.40;1.00;;;22.10;35.40;;;;;;20912114;28;20056;-58
2023/04/23 12:29:13;;;;;;;2.15;1.40;;;22.10;34.60;;;;;;20910231;28;20056;-66
2023/04/23 12:39:29;;;;;;;2.03;1.05;;;22.40;34.80;;;;;;20910568;28;20094;-67
2023/04/23 12:49:32;;;;;;;5.85;1.95;;;22.80;33.30;;;;;;20909901;28;20052;-65
2023/04/23 12:59:33;;;;;;;6.00;1.60;;;23.10;32.40;;;;;;20908926;28;20052;-60
2023/04/23 13:09:35;;;;;;;4.25;2.45;;;23.00;32.40;;;;;;20909716;28;20044;-63
2023/04/23 13:19:38;;;;;;;1.75;0.90;;;23.10;32.50;;;;;;20919197;28;20060;-59
2023/04/23 13:29:40;;;;;;;2.60;1.10;;;23.20;31.80;;;;;;20926437;28;20053;-60
2023/04/23 13:39:41;;;;;;;5.75;3.30;;;23.10;32.00;;;;;;20927564;28;20056;-63
2023/04/23 13:49:42;;;;;;;4.25;1.38;;;23.50;31.30;;;;;;20926875;28;20437;-60
2023/04/23 13:59:44;;;;;;;2.63;1.23;;;23.70;31.00;;;;;;20925685;28;20106;-61
2023/04/23 14:09:46;;;;;;;2.07;0.90;;;23.60;31.00;;;;;;20923954;28;20052;-62
2023/04/23 14:19:47;;;;;;;2.27;1.40;;;23.70;31.20;;;;;;20923436;28;20053;-63
2023/04/23 14:29:55;;;;;;;2.08;1.00;;;23.70;30.70;;;;;;20922605;28;20049;-63
2023/04/23 14:39:56;;;;;;;1.92;0.90;;;23.80;31.10;;;;;;20922597;28;20045;-60
2023/04/23 14:49:59;;;;;;;3.67;1.88;;;23.80;30.50;;;;;;20921007;28;20052;-62
2023/04/23 15:00:01;;;;;;;4.40;2.05;;;23.90;31.60;;;;;;20921111;28;20429;-62
2023/04/23 15:10:07;;;;;;;1.93;0.77;;;24.00;31.80;;;;;;20920067;28;20425;-61
2023/04/23 15:20:10;;;;;;;4.35;1.90;;;24.00;31.80;;;;;;20918947;28;20053;-62
2023/04/23 15:30:12;;;;;;;1.73;1.02;;;24.00;31.90;;;;;;20917878;28;20075;-62
2023/04/23 15:40:13;;;;;;;5.00;1.33;;;23.80;31.40;;;;;;20833141;28;20498;-61
2023/04/23 15:50:15;;;;;;;2.17;0.87;;;23.90;31.90;;;;;;20833538;28;20049;-60
2023/04/23 16:00:17;;;;;;;2.87;1.20;;;23.90;31.80;;;;;;20833847;28;20482;-61
2023/04/23 16:10:19;;;;;;;;;;;23.80;32.50;;;;;;20832917;28;20056;-60
2023/04/23 16:20:21;;;;;;;1.45;0.85;;;23.70;32.60;;;;;;20831323;28;19921;-62
2023/04/23 16:30:23;;;;;;;2.85;1.38;;;23.80;32.90;;;;;;20831949;28;20041;-62
2023/04/23 16:40:25;;;;;;;6.27;4.30;;;23.70;33.30;;;;;;20831110;28;20049;-61
2023/04/23 16:50:26;;;;;;;4.60;2.33;;;23.70;33.70;;;;;;20828167;28;20046;-62
2023/04/23 17:00:28;;;;;;;2.40;1.50;;;23.70;33.70;;;;;;20830526;28;20053;-61
2023/04/23 17:10:29;;;;;;;2.50;1.10;;;23.40;34.10;;;;;;20829276;28;20053;-60
2023/04/23 17:20:34;;;;;;;3.90;1.50;;;23.50;34.40;;;;;;20829264;28;20112;-61
2023/04/23 17:30:35;;;;;;;5.07;2.15;;;23.50;34.90;;;;;;20829587;28;20050;-60
2023/04/23 17:40:37;;;;;;;5.53;2.07;;;23.50;35.10;;;;;;20828831;28;20124;-63
2023/04/23 17:50:38;;;;;;;3.97;1.00;;;23.40;35.10;;;;;;20828042;28;20045;-62
2023/04/23 18:00:41;;;;;;;2.40;1.30;;;23.10;36.10;;;;;;20829569;28;20041;-60
2023/04/23 18:10:45;;;;;;;3.38;1.10;;;23.00;36.40;;;;;;20841106;28;20394;-62
2023/04/23 18:20:47;;;;;;;2.95;1.50;;;23.00;36.80;;;;;;20841285;28;20180;-60
2023/04/23 18:30:49;;;;;;;1.73;0.83;;;22.80;37.20;;;;;;20838706;28;20061;-62
2023/04/23 18:40:50;;;;;;;2.75;0.75;;;22.60;35.30;;;;;;20839276;28;20049;-59
2023/04/23 18:50:54;;;;;;;1.52;0.50;;;22.20;35.30;;;;;;20837483;28;20521;-61
2023/04/23 19:00:56;;;;;;;3.28;1.15;;;21.80;36.00;;;;;;20837607;28;20057;-58
2023/04/23 19:10:57;;;;;;;2.13;0.80;;;21.60;36.50;;;;;;20836097;28;20049;-61
2023/04/23 19:20:59;;;;;;;1.33;0.85;;;21.40;37.00;;;;;;20834353;28;20057;-61
2023/04/23 19:31:02;;;;;;;2.08;1.05;;;21.10;37.60;;;;;;20834503;28;20099;-59
2023/04/23 19:41:05;;;;;;;3.15;1.00;;;20.90;38.10;;;;;;20833464;28;20045;-60
2023/04/23 19:51:07;;;;;;;2.50;0.90;;;20.70;38.50;;;;;;20833674;28;20103;-61
2023/04/23 20:01:09;;;;;;;3.22;1.08;;;20.60;39.00;;;;;;20831830;28;20045;-60
2023/04/23 20:11:12;;;;;;;2.47;1.00;;;20.50;39.10;;;;;;20831246;28;20053;-60
2023/04/23 20:21:14;;;;;;;3.47;1.23;;;20.30;39.40;;;;;;20830323;28;20057;-60
2023/04/23 20:31:15;;;;;;;2.70;1.05;;;20.20;39.70;;;;;;20830030;28;20050;-59
2023/04/23 20:41:17;;;;;;;2.80;1.00;;;20.00;40.10;;;;;;20830499;28;20053;-60
2023/04/23 20:51:19;;;;;;;1.88;1.00;;;19.90;40.30;;;;;;20830132;28;20100;-60
2023/04/23 21:01:21;;;;;;;2.78;1.00;;;19.80;40.60;;;;;;20829199;28;20045;-59
2023/04/23 21:11:23;;;;;;;3.33;1.23;;;19.70;40.80;;;;;;20828506;28;20049;-61
2023/04/23 21:21:26;;;;;;;4.33;1.40;;;19.60;41.10;;;;;;20828935;28;20064;-60
2023/04/23 21:31:40;;;;;;;2.35;1.00;;;19.60;40.90;;;;;;20828362;28;20056;-61
2023/04/23 21:41:41;;;;;;;;;;;19.60;41.10;;;;;;20839289;28;20046;-59
2023/04/23 21:51:44;;;;;;;2.30;1.30;;;19.40;41.50;;;;;;20843270;28;20329;-61
2023/04/23 22:01:45;;;;;;;4.60;1.30;;;19.40;42.10;;;;;;20841764;28;20049;-60
2023/04/23 22:11:47;;;;;;;2.72;1.00;;;19.20;42.70;;;;;;20841324;28;20045;-61
2023/04/23 22:21:48;;;;;;;4.40;1.05;;;19.20;43.60;;;;;;20838738;28;20061;-59
2023/04/23 22:31:49;;;;;;;3.50;1.05;;;19.00;44.40;;;;;;20838441;28;20124;-61
2023/04/23 22:41:51;;;;;;;3.13;1.30;;;18.90;45.70;;;;;;20837562;28;20053;-59
2023/04/23 22:51:52;;;;;;;4.18;1.40;;;18.80;47.30;;;;;;20837512;28;20510;-60
2023/04/23 23:01:54;;;;;;;3.53;1.30;;;18.70;48.50;;;;;;20836371;28;20049;-59
2023/04/23 23:11:55;;;;;;;3.10;1.10;;;18.50;49.10;;;;;;20836920;28;20042;-59
2023/04/23 23:21:56;;;;;;;5.25;1.80;;;18.40;49.80;;;;;;20835059;28;20069;-61
2023/04/23 23:31:58;;;;;;;6.45;1.75;;;18.30;50.20;;;;;;20835081;28;20049;-60
2023/04/23 23:42:01;;;;;;;6.22;1.27;;;18.30;50.50;;;;;;20832976;28;20403;-59
2023/04/23 23:52:02;;;;;;;3.95;1.52;;;18.20;50.70;;;;;;20833212;28;20173;-59
